sensor_id;sensor_type;location;lat;lon;timestamp;pressure;altitude;pressure_sealevel;temperature;humidity
19890;BME280;10107;51.198;6.824;2023-11-22T00:03:27;-21459.31;;;5.28;100.00
19890;BME280;10107;51.198;6.824;2023-11-22T00:07:28;-21458.50;;;5.25;100.00
19890;BME280;10107;51.198;6.824;2023-11-22T00:11:30;-21458.78;;;5.26;100.00
19890;BME280;10107;51.198;6.824;2023-11-22T00:15:33;-21459.03;;;5.27;100.00
19890;BME280;10107;51.198;6.824;2023-11-22T00:19:36;-21459.31;;;5.28;100.00
19890;BME280;10107;51.198;6.824;2023-11-22T00:23:39;-21458.09;;;5.24;100.00
19890;BME280;10107;51.198;6.824;2023-11-22T00:27:40;-21456.91;;;5.19;100.00
19890;BME280;10107;51.198;6.824;2023-11-22T00:31:43;-21456.09;;;5.16;100.00
19890;BME280;10107;51.198;6.824;2023-11-22T00:35:45;-21454.34;;;5.09;100.00
19890;BME280;10107;51.198;6.824;2023-11-22T00:39:47;-21452.91;;;5.04;100.00
19890;BME280;10107;51.198;6.824;2023-11-22T00:43:49;-21451.28;;;4.97;100.00
19890;BME280;10107;51.198;6.824;2023-11-22T00:47:52;-21449.97;;;4.92;100.00
19890;BME280;10107;51.198;6.824;2023-11-22T00:51:53;-21447.41;;;4.83;100.00
19890;BME280;10107;51.198;6.824;2023-11-22T00:55:55;-21445.28;;;4.74;100.00
19890;BME280;10107;51.198;6.824;2023-11-22T00:59:57;-21442.75;;;4.65;100.00
19890;BME280;10107;51.198;6.824;2023-11-22T01:04:00;-21440.06;;;4.54;100.00
19890;BME280;10107;51.198;6.824;2023-11-22T01:08:01;-21437.53;;;4.45;100.00
19890;BME280;10107;51.198;6.824;2023-11-22T01:12:03;-21436.44;;;4.41;100.00
19890;BME280;10107;51.198;6.824;2023-11-22T01:16:05;-21434.59;;;4.33;100.00
19890;BME280;10107;51.198;6.824;2023-11-22T01:20:09;-21432.31;;;4.25;100.00
19890;BME280;10107;51.198;6.824;2023-11-22T01:24:12;-21431.91;;;4.23;100.00
19890;BME280;10107;51.198;6.824;2023-11-22T01:28:13;-21430.84;;;4.19;100.00
19890;BME280;10107;51.198;6.824;2023-11-22T01:32:15;-21428.97;;;4.12;100.00
19890;BME280;10107;51.198;6.824;2023-11-22T01:36:18;-21428.03;;;4.08;100.00
19890;BME280;10107;51.198;6.824;2023-11-22T01:40:20;-21425.63;;;3.99;100.00
19890;BME280;10107;51.198;6.824;2023-11-22T01:44:22;-21424.69;;;3.95;100.00
19890;BME280;10107;51.198;6.824;2023-11-22T01:48:24;-21424.56;;;3.95;100.00
19890;BME280;10107;51.198;6.824;2023-11-22T01:52:28;-21424.00;;;3.93;100.00
19890;BME280;10107;51.198;6.824;2023-11-22T01:56:30;-21424.28;;;3.94;100.00
19890;BME280;10107;51.198;6.824;2023-11-22T02:00:35;-21424.81;;;3.96;100.00
19890;BME280;10107;51.198;6.824;2023-11-22T02:04:37;-21425.75;;;4.00;100.00
19890;BME280;10107;51.198;6.824;2023-11-22T02:08:40;-21427.63;;;4.07;100.00
19890;BME280;10107;51.198;6.824;2023-11-22T02:12:42;-21428.44;;;4.10;100.00
19890;BME280;10107;51.198;6.824;2023-11-22T02:16:43;-21428.56;;;4.10;100.00
19890;BME280;10107;51.198;6.824;2023-11-22T02:20:45;-21428.31;;;4.09;100.00
19890;BME280;10107;51.198;6.824;2023-11-22T02:24:48;-21427.22;;;4.05;100.00
19890;BME280;10107;51.198;6.824;2023-11-22T02:28:50;-21425.75;;;4.00;100.00
19890;BME280;10107;51.198;6.824;2023-11-22T02:32:51;-21424.00;;;3.93;100.00
19890;BME280;10107;51.198;6.824;2023-11-22T02:36:53;-21421.63;;;3.84;100.00
19890;BME280;10107;51.198;6.824;2023-11-22T02:40:56;-21419.75;;;3.76;100.00
19890;BME280;10107;51.198;6.824;2023-11-22T02:44:58;-21417.19;;;3.67;100.00
19890;BME280;10107;51.198;6.824;2023-11-22T02:49:00;-21416.00;;;3.62;100.00
19890;BME280;10107;51.198;6.824;2023-11-22T02:53:01;-21414.66;;;3.57;100.00
19890;BME280;10107;51.198;6.824;2023-11-22T02:57:04;-21413.03;;;3.51;100.00
19890;BME280;10107;51.198;6.824;2023-11-22T03:01:06;-21410.50;;;3.41;100.00
19890;BME280;10107;51.198;6.824;2023-11-22T03:05:08;-21407.97;;;3.31;100.00
19890;BME280;10107;51.198;6.824;2023-11-22T03:09:11;-21405.41;;;3.22;100.00
19890;BME280;10107;51.198;6.824;2023-11-22T03:13:15;-21404.88;;;3.20;100.00
19890;BME280;10107;51.198;6.824;2023-11-22T03:17:17;-21403.28;;;3.13;100.00
19890;BME280;10107;51.198;6.824;2023-11-22T03:21:19;-21403.41;;;3.14;100.00
19890;BME280;10107;51.198;6.824;2023-11-22T03:25:20;-21402.72;;;3.11;100.00
19890;BME280;10107;51.198;6.824;2023-11-22T03:29:23;-21401.94;;;3.08;100.00
19890;BME280;10107;51.198;6.824;2023-11-22T03:33:25;-21401.94;;;3.08;100.00
19890;BME280;10107;51.198;6.824;2023-11-22T03:37:26;-21402.19;;;3.09;100.00
19890;BME280;10107;51.198;6.824;2023-11-22T03:41:28;-21401.94;;;3.08;100.00
19890;BME280;10107;51.198;6.824;2023-11-22T03:45:31;-21400.59;;;3.03;100.00
19890;BME280;10107;51.198;6.824;2023-11-22T03:49:34;-21399.53;;;2.99;100.00
19890;BME280;10107;51.198;6.824;2023-11-22T03:53:35;-21398.72;;;2.96;100.00
19890;BME280;10107;51.198;6.824;2023-11-22T03:57:37;-21398.31;;;2.94;100.00
19890;BME280;10107;51.198;6.824;2023-11-22T04:01:40;-21397.78;;;2.92;100.00
19890;BME280;10107;51.198;6.824;2023-11-22T04:05:41;-21396.56;;;2.88;100.00
19890;BME280;10107;51.198;6.824;2023-11-22T04:09:43;-21394.44;;;2.80;100.00
19890;BME280;10107;51.198;6.824;2023-11-22T04:13:45;-21393.75;;;2.77;100.00
19890;BME280;10107;51.198;6.824;2023-11-22T04:17:48;-21392.94;;;2.74;100.00
19890;BME280;10107;51.198;6.824;2023-11-22T04:21:50;-21391.63;;;2.69;100.00
19890;BME280;10107;51.198;6.824;2023-11-22T04:25:51;-21389.34;;;2.60;100.00
19890;BME280;10107;51.198;6.824;2023-11-22T04:29:53;-21387.72;;;2.54;100.00
19890;BME280;10107;51.198;6.824;2023-11-22T04:33:56;-21385.84;;;2.47;100.00
19890;BME280;10107;51.198;6.824;2023-11-22T04:38:00;-21383.97;;;2.40;100.00
19890;BME280;10107;51.198;6.824;2023-11-22T04:42:02;-21381.97;;;2.32;100.00
19890;BME280;10107;51.198;6.824;2023-11-22T04:46:04;-21379.81;;;2.24;100.00
19890;BME280;10107;51.198;6.824;2023-11-22T04:50:08;-21377.81;;;2.16;100.00
19890;BME280;10107;51.198;6.824;2023-11-22T04:54:11;-21377.81;;;2.16;100.00
19890;BME280;10107;51.198;6.824;2023-11-22T04:58:12;-21377.13;;;2.13;100.00
19890;BME280;10107;51.198;6.824;2023-11-22T05:02:14;-21377.53;;;2.15;100.00
19890;BME280;10107;51.198;6.824;2023-11-22T05:06:17;-21378.88;;;2.20;100.00
19890;BME280;10107;51.198;6.824;2023-11-22T05:10:19;-21379.41;;;2.22;100.00
19890;BME280;10107;51.198;6.824;2023-11-22T05:14:20;-21380.09;;;2.25;100.00
19890;BME280;10107;51.198;6.824;2023-11-22T05:18:23;-21381.56;;;2.30;100.00
19890;BME280;10107;51.198;6.824;2023-11-22T05:22:26;-21381.97;;;2.32;100.00
19890;BME280;10107;51.198;6.824;2023-11-22T05:26:28;-21382.75;;;2.35;100.00
19890;BME280;10107;51.198;6.824;2023-11-22T05:30:30;-21383.56;;;2.38;100.00
19890;BME280;10107;51.198;6.824;2023-11-22T05:34:31;-21383.44;;;2.37;100.00
19890;BME280;10107;51.198;6.824;2023-11-22T05:38:34;-21383.16;;;2.36;100.00
19890;BME280;10107;51.198;6.824;2023-11-22T05:42:37;-21382.22;;;2.33;100.00
19890;BME280;10107;51.198;6.824;2023-11-22T05:46:39;-21381.69;;;2.31;100.00
19890;BME280;10107;51.198;6.824;2023-11-22T05:50:40;-21380.47;;;2.26;100.00
19890;BME280;10107;51.198;6.824;2023-11-22T05:54:43;-21379.16;;;2.21;100.00
19890;BME280;10107;51.198;6.824;2023-11-22T05:58:45;-21377.66;;;2.15;100.00
19890;BME280;10107;51.198;6.824;2023-11-22T06:02:47;-21376.72;;;2.12;100.00
19890;BME280;10107;51.198;6.824;2023-11-22T06:06:48;-21375.38;;;2.07;100.00
19890;BME280;10107;51.198;6.824;2023-11-22T06:10:52;-21373.66;;;2.00;100.00
19890;BME280;10107;51.198;6.824;2023-11-22T06:14:57;-21370.56;;;1.88;100.00
19890;BME280;10107;51.198;6.824;2023-11-22T06:18:59;-21368.00;;;1.78;100.00
19890;BME280;10107;51.198;6.824;2023-11-22T06:23:00;-21365.59;;;1.69;100.00
19890;BME280;10107;51.198;6.824;2023-11-22T06:27:04;-21363.44;;;1.61;100.00
19890;BME280;10107;51.198;6.824;2023-11-22T06:31:06;-21361.97;;;1.55;100.00
19890;BME280;10107;51.198;6.824;2023-11-22T06:35:09;-21361.84;;;1.55;100.00
19890;BME280;10107;51.198;6.824;2023-11-22T06:39:11;-21361.44;;;1.53;100.00
19890;BME280;10107;51.198;6.824;2023-11-22T06:43:16;-21360.09;;;1.48;100.00
19890;BME280;10107;51.198;6.824;2023-11-22T06:47:18;-21358.88;;;1.44;100.00
19890;BME280;10107;51.198;6.824;2023-11-22T06:51:19;-21358.47;;;1.42;100.00
19890;BME280;10107;51.198;6.824;2023-11-22T06:55:21;-21359.16;;;1.45;100.00
19890;BME280;10107;51.198;6.824;2023-11-22T06:59:25;-21359.69;;;1.47;100.00
19890;BME280;10107;51.198;6.824;2023-11-22T07:03:26;-21360.22;;;1.49;100.00
19890;BME280;10107;51.198;6.824;2023-11-22T07:07:28;-21360.34;;;1.49;100.00
19890;BME280;10107;51.198;6.824;2023-11-22T07:11:29;-21359.28;;;1.45;100.00
19890;BME280;10107;51.198;6.824;2023-11-22T07:15:32;-21357.81;;;1.39;100.00
19890;BME280;10107;51.198;6.824;2023-11-22T07:19:34;-21357.13;;;1.37;100.00
19890;BME280;10107;51.198;6.824;2023-11-22T07:23:38;-21356.88;;;1.36;100.00
19890;BME280;10107;51.198;6.824;2023-11-22T07:27:39;-21356.88;;;1.36;100.00
19890;BME280;10107;51.198;6.824;2023-11-22T07:31:42;-21359.16;;;1.45;100.00
19890;BME280;10107;51.198;6.824;2023-11-22T07:35:45;-21396.84;;;2.89;100.00
19890;BME280;10107;51.198;6.824;2023-11-22T07:39:46;-21510.25;;;7.24;100.00
19890;BME280;10107;51.198;6.824;2023-11-22T07:43:50;-21574.69;;;9.73;100.00
19890;BME280;10107;51.198;6.824;2023-11-22T07:47:52;-21507.72;;;7.14;100.00
19890;BME280;10107;51.198;6.824;2023-11-22T07:51:56;-21459.84;;;5.30;100.00
19890;BME280;10107;51.198;6.824;2023-11-22T07:55:58;-21434.19;;;4.32;100.00
19890;BME280;10107;51.198;6.824;2023-11-22T07:59:59;-21420.53;;;3.80;100.00
19890;BME280;10107;51.198;6.824;2023-11-22T08:04:13;-21415.72;;;3.61;100.00
19890;BME280;10107;51.198;6.824;2023-11-22T08:08:15;-21414.13;;;3.55;100.00
19890;BME280;10107;51.198;6.824;2023-11-22T08:12:17;-21411.84;;;3.46;100.00
19890;BME280;10107;51.198;6.824;2023-11-22T08:16:19;-21416.13;;;3.63;100.00
19890;BME280;10107;51.198;6.824;2023-11-22T08:20:22;-21420.81;;;3.81;100.00
19890;BME280;10107;51.198;6.824;2023-11-22T08:24:25;-21430.03;;;4.16;100.00
19890;BME280;10107;51.198;6.824;2023-11-22T08:28:27;-21528.59;;;7.95;100.00
19890;BME280;10107;51.198;6.824;2023-11-22T08:32:29;-21605.72;;;10.93;100.00
19890;BME280;10107;51.198;6.824;2023-11-22T08:36:33;-21728.75;;;15.72;81.65
19890;BME280;10107;51.198;6.824;2023-11-22T08:40:34;-21811.81;;;18.97;57.74
19890;BME280;10107;51.198;6.824;2023-11-22T08:44:37;-21829.81;;;19.68;47.29
19890;BME280;10107;51.198;6.824;2023-11-22T08:48:39;-21842.59;;;20.18;45.00
19890;BME280;10107;51.198;6.824;2023-11-22T08:52:43;-21940.13;;;24.03;35.81
19890;BME280;10107;51.198;6.824;2023-11-22T08:56:45;-22002.75;;;26.52;30.35
19890;BME280;10107;51.198;6.824;2023-11-22T09:00:47;-21999.53;;;26.39;28.33
19890;BME280;10107;51.198;6.824;2023-11-22T09:04:48;-22001.47;;;26.47;28.65
19890;BME280;10107;51.198;6.824;2023-11-22T09:08:51;-21988.31;;;25.95;27.23
19890;BME280;10107;51.198;6.824;2023-11-22T09:12:53;-21950.75;;;24.45;27.51
19890;BME280;10107;51.198;6.824;2023-11-22T09:16:54;-21762.59;;;17.04;38.65
19890;BME280;10107;51.198;6.824;2023-11-22T09:20:56;-21629.78;;;11.86;52.77
19890;BME280;10107;51.198;6.824;2023-11-22T09:24:59;-21564.22;;;9.32;68.08
19890;BME280;10107;51.198;6.824;2023-11-22T09:29:01;-21536.72;;;8.26;75.72
19890;BME280;10107;51.198;6.824;2023-11-22T09:33:05;-21524.47;;;7.79;81.86
19890;BME280;10107;51.198;6.824;2023-11-22T09:37:07;-21521.16;;;7.66;81.29
19890;BME280;10107;51.198;6.824;2023-11-22T09:41:10;-21518.38;;;7.56;80.72
19890;BME280;10107;51.198;6.824;2023-11-22T09:45:12;-21519.56;;;7.60;75.45
19890;BME280;10107;51.198;6.824;2023-11-22T09:49:24;-21523.69;;;7.76;74.78
19890;BME280;10107;51.198;6.824;2023-11-22T09:53:31;-21523.28;;;7.74;68.39
19890;BME280;10107;51.198;6.824;2023-11-22T09:57:36;-21524.09;;;7.78;69.00
19890;BME280;10107;51.198;6.824;2023-11-22T10:01:40;-21522.75;;;7.72;66.84
19890;BME280;10107;51.198;6.824;2023-11-22T10:05:42;-21523.94;;;7.77;65.83
19890;BME280;10107;51.198;6.824;2023-11-22T10:09:43;-21527.69;;;7.91;70.78
19890;BME280;10107;51.198;6.824;2023-11-22T10:13:48;-21526.47;;;7.87;63.66
19890;BME280;10107;51.198;6.824;2023-11-22T10:17:54;-21527.81;;;7.92;67.54
19890;BME280;10107;51.198;6.824;2023-11-22T10:22:04;-21531.13;;;8.05;68.39
19890;BME280;10107;51.198;6.824;2023-11-22T10:26:09;-21535.38;;;8.21;65.87
19890;BME280;10107;51.198;6.824;2023-11-22T10:30:12;-21539.63;;;8.38;63.35
19890;BME280;10107;51.198;6.824;2023-11-22T10:34:15;-21546.41;;;8.64;65.03
19890;BME280;10107;51.198;6.824;2023-11-22T10:38:18;-21544.81;;;8.58;63.33
19890;BME280;10107;51.198;6.824;2023-11-22T10:42:20;-21543.63;;;8.53;64.38
19890;BME280;10107;51.198;6.824;2023-11-22T10:46:27;-21552.66;;;8.88;62.54
19890;BME280;10107;51.198;6.824;2023-11-22T10:50:29;-21566.19;;;9.40;61.16
19890;BME280;10107;51.198;6.824;2023-11-22T10:54:31;-21578.16;;;9.86;62.80
19890;BME280;10107;51.198;6.824;2023-11-22T10:58:37;-21587.16;;;10.21;60.55
19890;BME280;10107;51.198;6.824;2023-11-22T11:02:46;-21595.25;;;10.53;58.06
19890;BME280;10107;51.198;6.824;2023-11-22T11:06:53;-21608.88;;;11.05;57.30
19890;BME280;10107;51.198;6.824;2023-11-22T11:10:56;-21621.59;;;11.55;54.55
19890;BME280;10107;51.198;6.824;2023-11-22T11:14:59;-21626.22;;;11.73;53.31
19890;BME280;10107;51.198;6.824;2023-11-22T11:19:02;-21613.66;;;11.24;52.95
19890;BME280;10107;51.198;6.824;2023-11-22T11:23:04;-21596.69;;;10.58;52.36
19890;BME280;10107;51.198;6.824;2023-11-22T11:27:06;-21585.16;;;10.14;55.97
19890;BME280;10107;51.198;6.824;2023-11-22T11:31:08;-21579.47;;;9.91;55.31
19890;BME280;10107;51.198;6.824;2023-11-22T11:35:12;-21572.19;;;9.63;55.05
19890;BME280;10107;51.198;6.824;2023-11-22T11:39:14;-21565.13;;;9.36;54.27
19890;BME280;10107;51.198;6.824;2023-11-22T11:43:20;-21560.75;;;9.19;54.55
19890;BME280;10107;51.198;6.824;2023-11-22T11:47:22;-21559.84;;;9.16;57.02
19890;BME280;10107;51.198;6.824;2023-11-22T11:51:26;-21557.84;;;9.08;55.11
19890;BME280;10107;51.198;6.824;2023-11-22T11:55:28;-21557.03;;;9.05;55.39
19890;BME280;10107;51.198;6.824;2023-11-22T11:59:29;-21556.91;;;9.04;55.01
19890;BME280;10107;51.198;6.824;2023-11-22T12:03:32;-21554.38;;;8.95;54.44
19890;BME280;10107;51.198;6.824;2023-11-22T12:07:35;-21551.34;;;8.83;55.53
19890;BME280;10107;51.198;6.824;2023-11-22T12:11:37;-21547.88;;;8.69;56.99
19890;BME280;10107;51.198;6.824;2023-11-22T12:15:41;-21542.56;;;8.49;56.09
19890;BME280;10107;51.198;6.824;2023-11-22T12:19:42;-21532.72;;;8.11;54.57
19890;BME280;10107;51.198;6.824;2023-11-22T12:23:47;-21521.97;;;7.69;55.82
19890;BME280;10107;51.198;6.824;2023-11-22T12:27:48;-21513.31;;;7.36;57.58
19890;BME280;10107;51.198;6.824;2023-11-22T12:31:51;-21508.25;;;7.17;57.80
19890;BME280;10107;51.198;6.824;2023-11-22T12:35:53;-21505.31;;;7.05;61.26
19890;BME280;10107;51.198;6.824;2023-11-22T12:39:56;-21506.13;;;7.08;59.88
19890;BME280;10107;51.198;6.824;2023-11-22T12:44:04;-21503.31;;;6.98;60.62
19890;BME280;10107;51.198;6.824;2023-11-22T12:48:22;-21503.19;;;6.97;63.81
19890;BME280;10107;51.198;6.824;2023-11-22T12:52:30;-21502.53;;;6.94;63.54
19890;BME280;10107;51.198;6.824;2023-11-22T12:56:34;-21501.84;;;6.92;67.94
19890;BME280;10107;51.198;6.824;2023-11-22T13:00:35;-21502.25;;;6.93;72.48
19890;BME280;10107;51.198;6.824;2023-11-22T13:04:39;-21502.78;;;6.96;72.99
19890;BME280;10107;51.198;6.824;2023-11-22T13:08:40;-21502.25;;;6.93;72.41
19890;BME280;10107;51.198;6.824;2023-11-22T13:12:44;-21499.72;;;6.84;73.33
19890;BME280;10107;51.198;6.824;2023-11-22T13:16:46;-21498.00;;;6.77;73.63
19890;BME280;10107;51.198;6.824;2023-11-22T13:20:48;-21498.13;;;6.78;74.44
19890;BME280;10107;51.198;6.824;2023-11-22T13:24:50;-21500.13;;;6.85;71.94
19890;BME280;10107;51.198;6.824;2023-11-22T13:28:53;-21502.13;;;6.93;72.73
19890;BME280;10107;51.198;6.824;2023-11-22T13:32:56;-21504.38;;;7.02;71.06
19890;BME280;10107;51.198;6.824;2023-11-22T13:36:58;-21505.44;;;7.06;71.41
19890;BME280;10107;51.198;6.824;2023-11-22T13:40:59;-21506.38;;;7.09;76.84
19890;BME280;10107;51.198;6.824;2023-11-22T13:45:03;-21507.97;;;7.16;77.99
19890;BME280;10107;51.198;6.824;2023-11-22T13:49:05;-21508.66;;;7.18;79.28
19890;BME280;10107;51.198;6.824;2023-11-22T13:53:07;-21508.38;;;7.17;78.88
19890;BME280;10107;51.198;6.824;2023-11-22T13:57:11;-21506.78;;;7.11;77.98
19890;BME280;10107;51.198;6.824;2023-11-22T14:01:15;-21504.91;;;7.04;79.04
19890;BME280;10107;51.198;6.824;2023-11-22T14:05:21;-21504.50;;;7.02;78.35
19890;BME280;10107;51.198;6.824;2023-11-22T14:09:23;-21502.53;;;6.94;75.00
19890;BME280;10107;51.198;6.824;2023-11-22T14:13:25;-21501.19;;;6.89;75.75
19890;BME280;10107;51.198;6.824;2023-11-22T14:17:28;-21498.25;;;6.78;76.18
19890;BME280;10107;51.198;6.824;2023-11-22T14:21:29;-21495.06;;;6.66;76.79
19890;BME280;10107;51.198;6.824;2023-11-22T14:25:32;-21492.94;;;6.58;77.66
19890;BME280;10107;51.198;6.824;2023-11-22T14:29:34;-21491.06;;;6.50;72.38
19890;BME280;10107;51.198;6.824;2023-11-22T14:33:37;-21489.72;;;6.45;74.22
19890;BME280;10107;51.198;6.824;2023-11-22T14:37:38;-21488.66;;;6.41;79.50
19890;BME280;10107;51.198;6.824;2023-11-22T14:41:41;-21487.06;;;6.35;81.91
19890;BME280;10107;51.198;6.824;2023-11-22T14:45:42;-21483.84;;;6.23;83.66
19890;BME280;10107;51.198;6.824;2023-11-22T14:49:45;-21481.84;;;6.15;85.65
19890;BME280;10107;51.198;6.824;2023-11-22T14:53:47;-21479.47;;;6.06;86.96
19890;BME280;10107;51.198;6.824;2023-11-22T14:57:48;-21478.00;;;6.00;88.62
19890;BME280;10107;51.198;6.824;2023-11-22T15:01:51;-21476.13;;;5.93;87.64
19890;BME280;10107;51.198;6.824;2023-11-22T15:05:54;-21474.00;;;5.85;89.09
19890;BME280;10107;51.198;6.824;2023-11-22T15:09:57;-21472.38;;;5.79;90.68
19890;BME280;10107;51.198;6.824;2023-11-22T15:14:00;-21471.44;;;5.75;93.14
19890;BME280;10107;51.198;6.824;2023-11-22T15:18:01;-21470.50;;;5.71;94.90
19890;BME280;10107;51.198;6.824;2023-11-22T15:22:04;-21470.50;;;5.71;100.00
19890;BME280;10107;51.198;6.824;2023-11-22T15:26:06;-21469.19;;;5.66;100.00
19890;BME280;10107;51.198;6.824;2023-11-22T15:30:08;-21468.91;;;5.65;100.00
19890;BME280;10107;51.198;6.824;2023-11-22T15:34:12;-21467.72;;;5.61;100.00
19890;BME280;10107;51.198;6.824;2023-11-22T15:38:15;-21467.31;;;5.59;100.00
19890;BME280;10107;51.198;6.824;2023-11-22T15:42:17;-21466.25;;;5.55;100.00
19890;BME280;10107;51.198;6.824;2023-11-22T15:46:19;-21465.19;;;5.51;100.00
19890;BME280;10107;51.198;6.824;2023-11-22T15:50:24;-21464.25;;;5.47;100.00
19890;BME280;10107;51.198;6.824;2023-11-22T15:54:29;-21464.78;;;5.49;100.00
19890;BME280;10107;51.198;6.824;2023-11-22T15:58:30;-21464.38;;;5.48;100.00
19890;BME280;10107;51.198;6.824;2023-11-22T16:02:32;-21463.84;;;5.46;100.00
19890;BME280;10107;51.198;6.824;2023-11-22T16:06:34;-21463.19;;;5.43;100.00
19890;BME280;10107;51.198;6.824;2023-11-22T16:10:38;-21463.31;;;5.44;100.00
19890;BME280;10107;51.198;6.824;2023-11-22T16:14:40;-21463.31;;;5.44;100.00
19890;BME280;10107;51.198;6.824;2023-11-22T16:18:42;-21462.66;;;5.41;100.00
19890;BME280;10107;51.198;6.824;2023-11-22T16:22:43;-21462.09;;;5.39;100.00
19890;BME280;10107;51.198;6.824;2023-11-22T16:26:47;-21462.38;;;5.40;100.00
19890;BME280;10107;51.198;6.824;2023-11-22T16:30:48;-21461.72;;;5.38;100.00
19890;BME280;10107;51.198;6.824;2023-11-22T16:34:50;-21461.31;;;5.36;100.00
19890;BME280;10107;51.198;6.824;2023-11-22T16:38:52;-21460.38;;;5.32;100.00
19890;BME280;10107;51.198;6.824;2023-11-22T16:42:56;-21459.31;;;5.28;100.00
19890;BME280;10107;51.198;6.824;2023-11-22T16:46:58;-21459.69;;;5.30;100.00
19890;BME280;10107;51.198;6.824;2023-11-22T16:51:01;-21459.03;;;5.27;100.00
19890;BME280;10107;51.198;6.824;2023-11-22T16:55:03;-21459.84;;;5.30;100.00
19890;BME280;10107;51.198;6.824;2023-11-22T16:59:07;-21459.31;;;5.28;100.00
19890;BME280;10107;51.198;6.824;2023-11-22T17:03:09;-21458.50;;;5.25;100.00
19890;BME280;10107;51.198;6.824;2023-11-22T17:07:11;-21457.31;;;5.21;100.00
19890;BME280;10107;51.198;6.824;2023-11-22T17:11:13;-21456.09;;;5.16;100.00
19890;BME280;10107;51.198;6.824;2023-11-22T17:15:16;-21456.50;;;5.18;100.00
19890;BME280;10107;51.198;6.824;2023-11-22T17:19:19;-21457.44;;;5.21;100.00
19890;BME280;10107;51.198;6.824;2023-11-22T17:23:21;-21458.22;;;5.24;100.00
19890;BME280;10107;51.198;6.824;2023-11-22T17:27:22;-21457.56;;;5.22;100.00
19890;BME280;10107;51.198;6.824;2023-11-22T17:31:25;-21455.44;;;5.13;100.00
19890;BME280;10107;51.198;6.824;2023-11-22T17:35:27;-21454.34;;;5.09;100.00
19890;BME280;10107;51.198;6.824;2023-11-22T17:39:28;-21453.97;;;5.08;100.00
19890;BME280;10107;51.198;6.824;2023-11-22T17:43:30;-21454.34;;;5.09;100.00
19890;BME280;10107;51.198;6.824;2023-11-22T17:47:33;-21455.03;;;5.12;100.00
19890;BME280;10107;51.198;6.824;2023-11-22T17:51:38;-21453.81;;;5.07;100.00
19890;BME280;10107;51.198;6.824;2023-11-22T17:55:41;-21454.91;;;5.11;100.00
19890;BME280;10107;51.198;6.824;2023-11-22T17:59:43;-21455.03;;;5.12;100.00
19890;BME280;10107;51.198;6.824;2023-11-22T18:03:46;-21454.63;;;5.10;100.00
19890;BME280;10107;51.198;6.824;2023-11-22T18:07:47;-21455.16;;;5.12;100.00
19890;BME280;10107;51.198;6.824;2023-11-22T18:11:50;-21453.69;;;5.07;100.00
19890;BME280;10107;51.198;6.824;2023-11-22T18:15:52;-21452.50;;;5.02;100.00
19890;BME280;10107;51.198;6.824;2023-11-22T18:19:55;-21451.28;;;4.97;100.00
19890;BME280;10107;51.198;6.824;2023-11-22T18:23:58;-21449.69;;;4.91;100.00
19890;BME280;10107;51.198;6.824;2023-11-22T18:27:59;-21448.34;;;4.86;100.00
19890;BME280;10107;51.198;6.824;2023-11-22T18:32:05;-21445.28;;;4.74;100.00
19890;BME280;10107;51.198;6.824;2023-11-22T18:36:10;-21442.75;;;4.65;100.00
19890;BME280;10107;51.198;6.824;2023-11-22T18:40:12;-21439.41;;;4.52;100.00
19890;BME280;10107;51.198;6.824;2023-11-22T18:44:14;-21437.00;;;4.43;100.00
19890;BME280;10107;51.198;6.824;2023-11-22T18:48:15;-21435.91;;;4.39;100.00
19890;BME280;10107;51.198;6.824;2023-11-22T18:52:18;-21434.19;;;4.32;100.00
19890;BME280;10107;51.198;6.824;2023-11-22T18:56:20;-21433.25;;;4.28;100.00
19890;BME280;10107;51.198;6.824;2023-11-22T19:00:22;-21433.66;;;4.30;100.00
19890;BME280;10107;51.198;6.824;2023-11-22T19:04:23;-21432.31;;;4.25;100.00
19890;BME280;10107;51.198;6.824;2023-11-22T19:08:27;-21432.19;;;4.24;100.00
19890;BME280;10107;51.198;6.824;2023-11-22T19:12:28;-21433.66;;;4.30;100.00
19890;BME280;10107;51.198;6.824;2023-11-22T19:16:31;-21435.78;;;4.38;100.00
19890;BME280;10107;51.198;6.824;2023-11-22T19:20:32;-21438.19;;;4.47;100.00
19890;BME280;10107;51.198;6.824;2023-11-22T19:24:35;-21439.66;;;4.53;100.00
19890;BME280;10107;51.198;6.824;2023-11-22T19:28:38;-21438.59;;;4.49;100.00
19890;BME280;10107;51.198;6.824;2023-11-22T19:32:39;-21435.66;;;4.38;100.00
19890;BME280;10107;51.198;6.824;2023-11-22T19:36:41;-21435.25;;;4.36;100.00
19890;BME280;10107;51.198;6.824;2023-11-22T19:40:44;-21434.84;;;4.34;100.00
19890;BME280;10107;51.198;6.824;2023-11-22T19:44:45;-21435.78;;;4.38;100.00
19890;BME280;10107;51.198;6.824;2023-11-22T19:48:47;-21436.84;;;4.42;100.00
19890;BME280;10107;51.198;6.824;2023-11-22T19:52:49;-21437.66;;;4.45;100.00
19890;BME280;10107;51.198;6.824;2023-11-22T19:56:52;-21439.53;;;4.52;100.00
19890;BME280;10107;51.198;6.824;2023-11-22T20:00:54;-21439.00;;;4.50;100.00
19890;BME280;10107;51.198;6.824;2023-11-22T20:04:55;-21437.53;;;4.45;100.00
19890;BME280;10107;51.198;6.824;2023-11-22T20:08:57;-21437.38;;;4.44;100.00
19890;BME280;10107;51.198;6.824;2023-11-22T20:13:00;-21435.78;;;4.38;100.00
19890;BME280;10107;51.198;6.824;2023-11-22T20:17:02;-21435.53;;;4.37;100.00
19890;BME280;10107;51.198;6.824;2023-11-22T20:21:04;-21437.13;;;4.43;100.00
19890;BME280;10107;51.198;6.824;2023-11-22T20:25:06;-21437.00;;;4.43;100.00
19890;BME280;10107;51.198;6.824;2023-11-22T20:29:10;-21437.66;;;4.45;100.00
19890;BME280;10107;51.198;6.824;2023-11-22T20:33:14;-21439.78;;;4.53;100.00
19890;BME280;10107;51.198;6.824;2023-11-22T20:37:15;-21441.00;;;4.58;100.00
19890;BME280;10107;51.198;6.824;2023-11-22T20:41:19;-21442.34;;;4.63;100.00
19890;BME280;10107;51.198;6.824;2023-11-22T20:45:22;-21443.94;;;4.69;100.00
19890;BME280;10107;51.198;6.824;2023-11-22T20:49:24;-21443.53;;;4.68;100.00
19890;BME280;10107;51.198;6.824;2023-11-22T20:53:26;-21442.47;;;4.64;100.00
19890;BME280;10107;51.198;6.824;2023-11-22T20:57:29;-21441.53;;;4.60;100.00
19890;BME280;10107;51.198;6.824;2023-11-22T21:01:33;-21441.53;;;4.60;100.00
19890;BME280;10107;51.198;6.824;2023-11-22T21:05:34;-21441.66;;;4.61;100.00
19890;BME280;10107;51.198;6.824;2023-11-22T21:09:36;-21441.94;;;4.62;100.00
19890;BME280;10107;51.198;6.824;2023-11-22T21:13:37;-21442.06;;;4.62;100.00